Time;durP1;ratioP1;P1;durP2;ratioP2;P2;SDS_P1;SDS_P2;PMS_P1;PMS_P2;Temp;Humidity;BMP_temperature;BMP_pressure;BME280_temperature;BME280_humidity;BME280_pressure;Samples;Min_cycle;Max_cycle;Signal;HPM_P1;HPM_P2
2022/04/04 00:01:21;;;;;;;21.63;11.27;;;3.20;99.90;;;;;;5032640;28;20551;-67
2022/04/04 00:03:48;;;;;;;22.15;12.18;;;3.20;99.90;;;;;;5032460;28;20261;-67
2022/04/04 00:06:13;;;;;;;22.85;13.93;;;3.20;99.90;;;;;;5032462;28;20199;-68
2022/04/04 00:08:40;;;;;;;28.33;14.30;;;3.20;99.90;;;;;;5032502;28;20182;-68
2022/04/04 00:11:29;;;;;;;21.73;14.40;;;3.10;99.90;;;;;;5032451;28;20205;-67
2022/04/04 00:14:12;;;;;;;22.77;13.45;;;3.10;99.90;;;;;;5032341;28;20178;-68
2022/04/04 00:16:39;;;;;;;22.70;13.20;;;3.10;99.90;;;;;;5032894;28;20259;-68
2022/04/04 00:19:08;;;;;;;23.27;14.13;;;3.10;99.90;;;;;;5033796;28;20186;-68
2022/04/04 00:21:35;;;;;;;20.70;13.73;;;3.10;99.90;;;;;;5032690;28;20174;-68
2022/04/04 00:24:03;;;;;;;24.80;12.07;;;3.00;99.90;;;;;;5032507;28;20230;-68
2022/04/04 00:26:29;;;;;;;24.73;11.32;;;3.00;99.90;;;;;;5032311;28;20181;-68
2022/04/04 00:28:55;;;;;;;20.08;10.82;;;3.00;99.90;;;;;;5032299;28;20178;-68
2022/04/04 00:31:21;;;;;;;24.80;9.70;;;3.00;99.90;;;;;;5048961;28;20275;-68
2022/04/04 00:33:47;;;;;;;18.55;10.45;;;2.90;99.90;;;;;;5052557;28;20931;-67
2022/04/04 00:36:24;;;;;;;14.65;8.95;;;2.90;99.90;;;;;;5052037;28;20213;-69
2022/04/04 00:38:53;;;;;;;18.73;10.98;;;2.90;99.90;;;;;;5052144;28;20182;-68
2022/04/04 00:41:19;;;;;;;16.50;10.65;;;2.90;99.90;;;;;;5052548;28;20213;-67
2022/04/04 00:43:52;;;;;;;19.95;11.32;;;2.80;99.90;;;;;;5052251;28;20229;-68
2022/04/04 00:46:19;;;;;;;30.70;12.90;;;2.80;99.90;;;;;;5057074;28;20236;-68
2022/04/04 00:48:50;;;;;;;37.97;15.02;;;2.80;99.90;;;;;;5056288;28;20576;-67
2022/04/04 00:51:22;;;;;;;37.42;18.42;;;2.70;99.90;;;;;;5056200;28;20200;-68
2022/04/04 00:53:48;;;;;;;60.50;30.77;;;2.70;99.90;;;;;;5056099;28;20608;-68
2022/04/04 00:56:14;;;;;;;102.72;43.58;;;2.70;99.90;;;;;;5057290;28;20198;-68
2022/04/04 00:58:40;;;;;;;139.88;53.13;;;2.70;99.90;;;;;;5055995;28;20185;-68
2022/04/04 01:01:07;;;;;;;118.00;46.53;;;2.70;99.90;;;;;;5056003;28;20244;-67
2022/04/04 01:03:33;;;;;;;121.82;44.92;;;2.60;99.90;;;;;;5055961;28;20213;-68
2022/04/04 01:05:59;;;;;;;76.57;30.30;;;2.60;99.90;;;;;;5056049;28;20575;-68
2022/04/04 01:08:26;;;;;;;74.28;28.40;;;2.60;99.90;;;;;;5055741;28;20184;-67
2022/04/04 01:10:54;;;;;;;61.40;27.08;;;2.60;99.90;;;;;;5055860;28;20670;-69
2022/04/04 01:13:34;;;;;;;72.85;30.10;;;2.60;99.90;;;;;;5056057;28;20261;-68
2022/04/04 01:16:00;;;;;;;72.88;30.10;;;2.60;99.90;;;;;;5045630;28;20198;-68
2022/04/04 01:18:27;;;;;;;80.85;30.73;;;2.50;99.90;;;;;;5015978;28;20171;-68
2022/04/04 01:20:55;;;;;;;65.53;26.17;;;2.50;99.90;;;;;;5016021;28;20195;-68
2022/04/04 01:23:23;;;;;;;71.72;29.55;;;2.50;99.90;;;;;;5015775;28;20438;-68
2022/04/04 01:25:49;;;;;;;82.25;28.02;;;2.50;99.90;;;;;;5015661;28;20207;-67
2022/04/04 01:28:17;;;;;;;52.88;25.05;;;2.50;99.90;;;;;;5015551;28;20179;-68
2022/04/04 01:30:51;;;;;;;64.28;26.98;;;2.40;99.90;;;;;;5026350;28;20284;-68
2022/04/04 01:33:20;;;;;;;57.70;24.92;;;2.40;99.90;;;;;;5051888;28;20174;-69
2022/04/04 01:35:51;;;;;;;60.00;23.08;;;2.50;99.90;;;;;;5051506;28;20217;-68
2022/04/04 01:38:28;;;;;;;53.92;24.92;;;2.40;99.90;;;;;;5051947;28;20186;-68
2022/04/04 01:40:55;;;;;;;50.85;22.95;;;2.40;99.90;;;;;;5051991;28;20670;-68
2022/04/04 01:43:21;;;;;;;44.65;21.08;;;2.40;99.90;;;;;;5051661;28;20207;-68
2022/04/04 01:48:39;;;;;;;66.28;25.80;;;2.40;99.90;;;;;;5036715;28;20223;-68
2022/04/04 01:51:05;;;;;;;48.50;23.60;;;2.40;99.90;;;;;;5036741;28;20193;-69
2022/04/04 01:53:32;;;;;;;51.60;26.15;;;2.40;99.90;;;;;;5051873;28;20175;-68
2022/04/04 01:56:11;;;;;;;58.05;25.55;;;2.30;99.90;;;;;;5051030;28;20190;-68
2022/04/04 01:58:37;;;;;;;48.00;20.00;;;2.40;99.90;;;;;;5051502;28;20189;-68
2022/04/04 02:01:19;;;;;;;41.50;17.95;;;2.30;99.90;;;;;;5051420;28;20226;-68
2022/04/04 02:03:47;;;;;;;33.63;15.25;;;2.30;99.90;;;;;;5051323;28;20221;-67
2022/04/04 02:06:14;;;;;;;33.45;16.42;;;2.30;99.90;;;;;;5051239;28;20202;-67
2022/04/04 02:08:42;;;;;;;37.42;15.77;;;2.30;99.90;;;;;;5051401;28;20210;-68
2022/04/04 02:11:09;;;;;;;33.08;16.92;;;2.30;99.90;;;;;;5051492;28;20201;-68
2022/04/04 02:13:51;;;;;;;42.65;20.52;;;2.30;99.90;;;;;;5034759;28;20190;-67
2022/04/04 02:16:20;;;;;;;37.92;18.75;;;2.30;99.90;;;;;;5044364;28;20201;-68
2022/04/04 02:18:47;;;;;;;54.08;24.42;;;2.20;99.90;;;;;;5054712;28;20228;-67
2022/04/04 02:21:16;;;;;;;77.78;30.00;;;2.20;99.90;;;;;;5055487;28;20194;-68
2022/04/04 02:23:43;;;;;;;81.35;31.02;;;2.20;99.90;;;;;;5053796;28;20273;-67
2022/04/04 02:26:14;;;;;;;93.77;35.73;;;2.10;99.90;;;;;;5054860;28;20201;-68
2022/04/04 02:28:42;;;;;;;94.65;36.78;;;2.10;99.90;;;;;;5054591;28;20430;-67
2022/04/04 02:31:20;;;;;;;105.00;40.80;;;2.10;99.90;;;;;;5053468;28;20229;-68
2022/04/04 02:33:46;;;;;;;106.55;41.13;;;2.10;99.90;;;;;;5054021;28;20208;-67
2022/04/04 02:36:13;;;;;;;86.50;42.10;;;2.00;99.90;;;;;;5053775;28;20224;-67
2022/04/04 02:38:45;;;;;;;88.43;39.58;;;2.00;99.90;;;;;;5055305;28;20178;-68
2022/04/04 02:41:16;;;;;;;91.28;40.08;;;2.00;99.90;;;;;;5053733;28;20213;-67
2022/04/04 02:43:41;;;;;;;82.13;34.60;;;2.00;99.90;;;;;;5053786;28;20221;-67
2022/04/04 02:46:11;;;;;;;68.90;31.00;;;2.00;99.90;;;;;;5053894;28;20198;-67
2022/04/04 02:48:46;;;;;;;64.63;29.48;;;2.00;99.90;;;;;;5053760;28;20398;-68
2022/04/04 02:51:13;;;;;;;66.10;28.92;;;1.90;99.90;;;;;;5054045;28;20765;-70
2022/04/04 02:53:39;;;;;;;75.97;31.10;;;1.90;99.90;;;;;;5053800;28;20319;-67
2022/04/04 02:56:31;;;;;;;72.22;31.10;;;1.90;99.90;;;;;;5053659;28;20563;-67
2022/04/04 02:59:06;;;;;;;74.40;30.98;;;1.90;99.90;;;;;;5053527;28;20276;-67
2022/04/04 03:01:35;;;;;;;100.20;36.25;;;1.90;99.90;;;;;;5053498;28;20185;-67
2022/04/04 03:04:02;;;;;;;88.93;37.92;;;1.90;99.90;;;;;;5053558;28;20248;-68
2022/04/04 03:06:36;;;;;;;100.53;38.88;;;1.80;99.90;;;;;;5053729;28;20226;-68
2022/04/04 03:09:05;;;;;;;80.03;34.00;;;1.80;99.90;;;;;;5052905;28;20194;-68
2022/04/04 03:11:31;;;;;;;52.70;28.70;;;1.80;99.90;;;;;;5053443;28;20589;-68
2022/04/04 03:14:37;;;;;;;56.50;23.90;;;1.80;99.90;;;;;;5053288;28;20178;-68
2022/04/04 03:17:03;;;;;;;47.47;20.85;;;1.80;99.90;;;;;;5006738;28;20217;-67
2022/04/04 03:19:29;;;;;;;42.10;20.47;;;1.80;99.90;;;;;;5033228;28;20230;-67
2022/04/04 03:21:59;;;;;;;39.45;19.38;;;1.80;99.90;;;;;;5033295;28;20509;-67
2022/04/04 03:24:26;;;;;;;40.03;18.98;;;1.80;99.90;;;;;;5033342;28;20595;-67
2022/04/04 03:26:52;;;;;;;45.78;22.75;;;1.80;99.90;;;;;;5033286;28;20534;-68
2022/04/04 03:29:27;;;;;;;47.47;22.13;;;1.80;99.90;;;;;;5033202;28;20198;-69
2022/04/04 03:31:53;;;;;;;48.90;19.05;;;1.80;99.90;;;;;;5052996;28;20555;-68
2022/04/04 03:34:19;;;;;;;44.93;20.37;;;1.80;99.90;;;;;;5054627;28;20205;-69
2022/04/04 03:36:47;;;;;;;46.63;18.95;;;1.90;99.90;;;;;;5052894;28;20177;-68
2022/04/04 03:39:17;;;;;;;42.33;21.77;;;1.90;99.90;;;;;;5052706;28;20240;-69
2022/04/04 03:41:46;;;;;;;57.97;26.55;;;1.90;99.90;;;;;;5052716;28;20550;-68
2022/04/04 03:44:16;;;;;;;48.20;23.80;;;1.90;99.90;;;;;;5052502;28;20257;-68
2022/04/04 03:46:42;;;;;;;40.40;18.60;;;2.00;99.90;;;;;;5052858;28;20646;-68
2022/04/04 03:49:15;;;;;;;29.40;16.10;;;2.00;99.90;;;;;;5052785;28;20186;-68
2022/04/04 03:51:45;;;;;;;35.17;16.35;;;2.00;99.90;;;;;;5052913;28;20166;-68
2022/04/04 03:54:13;;;;;;;28.88;15.25;;;2.00;99.90;;;;;;5052932;28;20186;-68
2022/04/04 03:56:40;;;;;;;24.45;14.07;;;2.00;99.90;;;;;;5052781;28;20177;-68
2022/04/04 03:59:10;;;;;;;32.42;16.80;;;2.00;99.90;;;;;;5052608;28;20647;-68
2022/04/04 04:01:37;;;;;;;26.10;14.10;;;2.00;99.90;;;;;;5052589;28;20184;-68
2022/04/04 04:04:03;;;;;;;22.67;13.05;;;2.00;99.90;;;;;;5052565;28;20682;-68
2022/04/04 04:06:31;;;;;;;17.70;10.73;;;2.00;99.90;;;;;;5052398;28;20178;-68
2022/04/04 04:08:59;;;;;;;19.05;11.00;;;2.00;99.90;;;;;;5052504;28;20597;-68
2022/04/04 04:11:25;;;;;;;22.65;13.00;;;2.00;99.90;;;;;;5052601;28;20181;-68
2022/04/04 04:13:56;;;;;;;19.60;11.27;;;2.00;99.90;;;;;;5053650;28;20213;-67
2022/04/04 04:16:26;;;;;;;21.42;10.48;;;2.00;99.90;;;;;;5052334;28;20348;-68
2022/04/04 04:19:04;;;;;;;11.43;8.40;;;1.90;99.90;;;;;;5051918;28;20190;-68
2022/04/04 04:21:50;;;;;;;16.75;10.15;;;2.00;99.90;;;;;;5053317;28;20631;-69
2022/04/04 04:24:16;;;;;;;20.98;12.80;;;2.00;99.90;;;;;;5051803;28;20225;-69
2022/04/04 04:26:42;;;;;;;20.98;11.35;;;2.00;99.90;;;;;;5052257;28;20188;-69
2022/04/04 04:29:20;;;;;;;19.08;12.38;;;2.00;99.90;;;;;;5051956;28;20181;-69
2022/04/04 04:31:54;;;;;;;24.52;11.45;;;2.00;99.90;;;;;;5033305;28;20758;-69
2022/04/04 04:34:22;;;;;;;32.53;13.90;;;2.00;99.90;;;;;;5032462;28;20213;-69
2022/04/04 04:36:53;;;;;;;30.23;15.27;;;2.00;99.90;;;;;;5031311;28;20177;-69
2022/04/04 04:39:28;;;;;;;23.80;11.93;;;2.00;99.90;;;;;;5032215;28;20260;-69
2022/04/04 04:41:55;;;;;;;27.95;14.80;;;2.00;99.90;;;;;;5032348;28;20174;-69
2022/04/04 04:44:41;;;;;;;23.08;12.35;;;2.00;99.90;;;;;;5032180;28;20238;-69
2022/04/04 04:47:09;;;;;;;18.27;11.02;;;2.10;99.90;;;;;;5047979;28;20179;-68
2022/04/04 04:49:37;;;;;;;18.15;12.68;;;2.10;99.90;;;;;;5010872;28;20257;-68
2022/04/04 04:52:09;;;;;;;23.90;13.77;;;2.20;99.90;;;;;;5020029;28;20218;-69
2022/04/04 04:54:35;;;;;;;29.55;12.27;;;2.30;99.90;;;;;;5025581;28;20226;-68
2022/04/04 04:57:06;;;;;;;20.60;12.45;;;2.40;99.90;;;;;;5032032;28;20189;-68
2022/04/04 04:59:36;;;;;;;20.33;11.55;;;2.50;99.90;;;;;;5031500;28;20269;-68
2022/04/04 05:02:08;;;;;;;25.08;14.10;;;2.60;99.90;;;;;;5031859;28;20201;-68
2022/04/04 05:04:44;;;;;;;27.08;12.05;;;2.70;99.90;;;;;;5031903;28;20856;-68
2022/04/04 05:07:10;;;;;;;28.92;14.65;;;2.80;99.90;;;;;;5032157;28;20178;-67
2022/04/04 05:09:36;;;;;;;30.73;18.03;;;2.80;99.90;;;;;;5032328;28;20223;-68
2022/04/04 05:12:11;;;;;;;29.27;14.43;;;2.90;99.90;;;;;;5031720;28;20423;-68
2022/04/04 05:14:45;;;;;;;23.05;13.40;;;3.00;99.90;;;;;;5031670;28;20557;-68
2022/04/04 05:17:13;;;;;;;26.98;14.05;;;3.00;99.90;;;;;;5048679;28;20178;-68
2022/04/04 05:19:44;;;;;;;27.65;13.70;;;3.10;99.90;;;;;;5049782;28;20193;-68
2022/04/04 05:22:19;;;;;;;39.10;17.13;;;3.10;99.90;;;;;;5052140;28;20683;-68
2022/04/04 05:24:52;;;;;;;29.73;15.05;;;3.10;99.90;;;;;;5051710;28;20230;-68
2022/04/04 05:27:27;;;;;;;29.35;13.07;;;3.00;99.90;;;;;;5051626;28;20178;-69
2022/04/04 05:29:53;;;;;;;22.83;12.80;;;2.90;99.90;;;;;;5051214;28;20255;-68
2022/04/04 05:32:21;;;;;;;22.75;12.25;;;2.90;99.90;;;;;;5052535;28;20606;-67
2022/04/04 05:34:47;;;;;;;22.63;10.17;;;2.90;99.90;;;;;;5071428;28;20260;-67
2022/04/04 05:37:16;;;;;;;15.57;10.00;;;2.90;99.90;;;;;;5054996;28;20405;-67
2022/04/04 05:39:42;;;;;;;12.63;7.68;;;2.80;99.90;;;;;;5052470;28;20261;-68
2022/04/04 05:45:09;;;;;;;13.32;7.30;;;2.90;99.90;;;;;;5042268;28;20278;-67
2022/04/04 05:47:35;;;;;;;9.70;6.10;;;2.80;99.90;;;;;;5050501;28;20197;-67
2022/04/04 05:50:14;;;;;;;14.90;6.32;;;2.90;99.90;;;;;;5051330;28;20210;-69
2022/04/04 05:53:19;;;;;;;8.55;6.45;;;2.90;99.90;;;;;;5045285;28;20193;-68
2022/04/04 05:55:58;;;;;;;8.45;6.75;;;2.90;99.90;;;;;;5019844;28;20202;-68
2022/04/04 05:58:24;;;;;;;9.45;5.68;;;3.00;99.90;;;;;;5036230;28;20213;-69
2022/04/04 06:00:53;;;;;;;8.82;5.55;;;3.00;99.90;;;;;;5048635;28;20278;-68
2022/04/04 06:03:21;;;;;;;9.10;6.65;;;3.10;99.90;;;;;;5047120;28;20213;-68
2022/04/04 06:05:49;;;;;;;11.15;7.07;;;3.10;99.90;;;;;;5051810;28;20540;-68
2022/04/04 06:08:17;;;;;;;10.18;7.75;;;3.20;99.90;;;;;;5049198;28;20173;-68
2022/04/04 06:10:46;;;;;;;8.75;6.55;;;3.20;99.90;;;;;;5049635;28;20252;-68
2022/04/04 06:13:20;;;;;;;9.32;6.80;;;3.30;99.90;;;;;;5049044;28;20173;-68
2022/04/04 06:15:47;;;;;;;9.82;6.57;;;3.40;99.90;;;;;;5046348;28;20209;-69
2022/04/04 06:18:17;;;;;;;8.05;6.45;;;3.50;99.90;;;;;;5030960;28;20171;-68
2022/04/04 06:20:43;;;;;;;8.27;6.18;;;3.50;99.90;;;;;;5030642;28;20211;-69
2022/04/04 06:23:14;;;;;;;10.68;6.40;;;3.60;99.90;;;;;;5047927;28;20262;-68
2022/04/04 06:25:41;;;;;;;11.13;6.60;;;3.60;99.90;;;;;;5045533;28;20252;-68
2022/04/04 06:28:08;;;;;;;8.13;5.78;;;3.70;99.90;;;;;;5058578;28;20181;-68
2022/04/04 06:30:39;;;;;;;6.88;5.30;;;3.80;99.90;;;;;;5049561;28;20340;-68
2022/04/04 06:33:09;;;;;;;5.82;5.22;;;3.90;99.90;;;;;;5046459;28;20273;-68
2022/04/04 06:35:35;;;;;;;10.10;5.60;;;4.00;99.90;;;;;;5048600;28;20333;-68
2022/04/04 06:38:03;;;;;;;5.93;5.03;;;4.10;99.90;;;;;;5047894;28;20189;-68
2022/04/04 06:40:32;;;;;;;7.35;5.53;;;4.20;99.90;;;;;;5049557;28;20565;-68
2022/04/04 06:43:04;;;;;;;6.57;5.30;;;4.20;99.90;;;;;;5048351;28;20276;-68
2022/04/04 06:45:30;;;;;;;6.75;5.80;;;4.30;99.90;;;;;;5046404;28;20260;-69
2022/04/04 06:47:55;;;;;;;5.67;4.00;;;4.40;99.90;;;;;;5033708;28;20201;-70
2022/04/04 06:50:22;;;;;;;8.47;6.40;;;4.50;99.90;;;;;;5049336;28;20485;-68
2022/04/04 06:52:52;;;;;;;9.15;5.80;;;4.60;99.90;;;;;;5048461;28;20435;-68
2022/04/04 06:55:18;;;;;;;9.40;5.78;;;4.70;99.90;;;;;;5048909;28;20214;-68
2022/04/04 06:57:44;;;;;;;8.95;6.68;;;4.80;99.90;;;;;;5037276;28;20231;-68
2022/04/04 07:00:17;;;;;;;10.63;6.00;;;4.80;99.90;;;;;;5057419;28;20296;-69
2022/04/04 07:02:47;;;;;;;9.82;7.05;;;4.90;99.90;;;;;;5048434;28;20197;-68
2022/04/04 07:05:16;;;;;;;9.27;6.68;;;4.90;99.90;;;;;;5068737;28;20240;-68
2022/04/04 07:07:42;;;;;;;13.05;7.40;;;5.00;99.90;;;;;;5050764;28;20553;-67
2022/04/04 07:10:21;;;;;;;25.50;10.97;;;5.10;99.90;;;;;;5044718;28;20377;-68
2022/04/04 07:12:47;;;;;;;29.52;11.82;;;5.10;99.90;;;;;;5032599;28;20738;-68
2022/04/04 07:15:13;;;;;;;24.30;12.63;;;5.20;99.90;;;;;;5032061;28;20333;-68
2022/04/04 07:17:46;;;;;;;9.35;7.13;;;5.20;99.90;;;;;;5037457;28;20201;-68
2022/04/04 07:20:13;;;;;;;12.38;8.13;;;5.30;99.90;;;;;;5057669;28;20704;-68
2022/04/04 07:22:41;;;;;;;12.85;7.25;;;5.40;99.90;;;;;;5048870;28;20277;-68
2022/04/04 07:25:09;;;;;;;12.10;7.50;;;5.50;99.90;;;;;;5050849;28;20214;-68
2022/04/04 07:27:37;;;;;;;6.90;6.03;;;5.60;99.90;;;;;;5048555;28;20255;-69
2022/04/04 07:30:04;;;;;;;9.02;6.78;;;5.60;99.90;;;;;;5049163;28;20616;-68
2022/04/04 07:32:37;;;;;;;7.78;5.60;;;5.70;99.90;;;;;;5021011;28;20206;-68
2022/04/04 07:35:11;;;;;;;6.80;4.80;;;5.80;99.90;;;;;;5021905;28;20210;-68
2022/04/04 07:37:41;;;;;;;10.43;5.68;;;5.90;99.90;;;;;;5031657;28;20633;-67
2022/04/04 07:40:13;;;;;;;5.88;4.57;;;5.90;99.90;;;;;;5029712;28;20286;-68
2022/04/04 07:42:41;;;;;;;6.57;5.13;;;6.00;99.90;;;;;;5029378;28;20730;-67
2022/04/04 07:45:17;;;;;;;6.28;4.22;;;6.10;99.90;;;;;;5023315;28;20498;-69
2022/04/04 07:47:46;;;;;;;8.95;5.68;;;6.20;99.90;;;;;;5022436;28;20214;-67
2022/04/04 07:50:13;;;;;;;5.32;4.38;;;6.30;99.90;;;;;;5026216;28;20209;-68
2022/04/04 07:52:40;;;;;;;8.10;5.38;;;6.50;99.90;;;;;;5028430;28;20179;-67
2022/04/04 07:55:09;;;;;;;6.53;3.58;;;6.60;99.90;;;;;;5027318;28;20893;-68
2022/04/04 07:57:41;;;;;;;5.20;3.85;;;6.70;99.30;;;;;;5023248;28;20194;-69
2022/04/04 08:00:18;;;;;;;4.57;3.30;;;6.80;99.90;;;;;;5025746;28;20202;-69
2022/04/04 08:02:46;;;;;;;6.53;4.00;;;6.90;99.30;;;;;;5030017;28;20332;-68
2022/04/04 08:05:16;;;;;;;6.70;4.10;;;7.10;97.70;;;;;;5028513;28;20756;-68
2022/04/04 08:07:47;;;;;;;5.68;4.60;;;7.10;97.40;;;;;;5046791;28;20542;-67
2022/04/04 08:10:18;;;;;;;4.70;3.90;;;7.30;98.10;;;;;;5027527;28;20214;-67
2022/04/04 08:12:52;;;;;;;3.45;3.15;;;7.30;95.80;;;;;;5047280;28;20261;-67
2022/04/04 08:15:21;;;;;;;3.40;2.92;;;7.40;95.80;;;;;;5031378;28;20200;-68
2022/04/04 08:17:58;;;;;;;5.57;3.83;;;7.50;95.00;;;;;;5017350;28;20195;-69
2022/04/04 08:20:31;;;;;;;5.75;3.85;;;7.60;96.10;;;;;;5011619;28;20205;-71
2022/04/04 08:23:00;;;;;;;4.05;3.05;;;7.80;94.30;;;;;;5012391;28;20185;-70
2022/04/04 08:25:25;;;;;;;7.70;3.95;;;7.90;93.70;;;;;;5029017;28;20621;-68
2022/04/04 08:28:02;;;;;;;6.07;3.93;;;8.00;93.30;;;;;;5006915;28;20186;-70
2022/04/04 08:30:31;;;;;;;4.50;4.10;;;8.00;93.80;;;;;;5045495;28;20474;-70
2022/04/04 08:32:58;;;;;;;6.10;2.97;;;8.10;92.90;;;;;;5067912;28;20240;-68
2022/04/04 08:35:24;;;;;;;3.90;3.35;;;8.10;91.90;;;;;;5052206;28;20212;-70
2022/04/04 08:37:50;;;;;;;6.50;3.90;;;8.30;94.70;;;;;;5050586;28;21000;-70
2022/04/04 08:40:18;;;;;;;4.35;3.70;;;8.60;92.50;;;;;;5043291;28;20201;-69
2022/04/04 08:42:54;;;;;;;5.47;3.70;;;9.20;94.20;;;;;;5068618;28;20184;-70
2022/04/04 08:45:20;;;;;;;5.10;4.57;;;10.20;90.80;;;;;;5057168;28;20215;-69
2022/04/04 08:47:46;;;;;;;5.77;4.20;;;11.30;91.20;;;;;;5051880;28;20189;-69
2022/04/04 08:50:18;;;;;;;4.55;4.20;;;12.20;88.20;;;;;;5050353;28;20729;-71
2022/04/04 08:52:47;;;;;;;4.28;3.78;;;13.10;88.80;;;;;;5053684;28;20224;-71
2022/04/04 08:55:17;;;;;;;4.80;3.92;;;13.90;78.80;;;;;;5061266;28;20809;-70
2022/04/04 08:57:43;;;;;;;4.90;3.50;;;14.30;82.60;;;;;;5053358;28;20188;-71
2022/04/04 09:00:10;;;;;;;4.80;3.58;;;14.50;82.50;;;;;;5052712;28;20708;-70
2022/04/04 09:02:37;;;;;;;4.15;3.40;;;14.60;85.40;;;;;;5054365;28;20188;-70
2022/04/04 09:05:05;;;;;;;4.40;3.92;;;14.60;85.30;;;;;;5074131;28;20308;-70
2022/04/04 09:07:54;;;;;;;6.00;4.37;;;14.70;84.70;;;;;;5058164;28;20532;-70
2022/04/04 09:10:36;;;;;;;4.10;3.70;;;14.90;82.30;;;;;;5058298;28;20955;-71
2022/04/04 09:13:09;;;;;;;4.80;4.40;;;14.90;87.50;;;;;;5058662;28;20426;-70
2022/04/04 09:15:56;;;;;;;4.73;3.73;;;14.80;88.10;;;;;;5057937;28;21012;-71
2022/04/04 09:18:45;;;;;;;5.90;4.00;;;14.80;88.80;;;;;;5060421;28;20448;-68
2022/04/04 09:21:29;;;;;;;4.03;3.70;;;14.90;84.60;;;;;;5055343;28;20594;-69
2022/04/04 09:24:07;;;;;;;4.93;4.50;;;15.00;74.50;;;;;;5056543;28;21075;-70
2022/04/04 09:30:25;;;;;;;4.90;3.83;;;15.30;74.30;;;;;;5159980;22;20522;-68
2022/04/04 09:32:56;;;;;;;4.40;4.00;;;15.40;80.60;;;;;;5032527;28;20412;-69
2022/04/04 09:35:29;;;;;;;4.23;3.80;;;15.50;84.10;;;;;;5030827;28;20481;-67
2022/04/04 09:38:13;;;;;;;4.60;4.20;;;15.50;74.50;;;;;;5032031;28;20787;-69
2022/04/04 09:41:00;;;;;;;5.70;4.20;;;15.50;82.50;;;;;;5028119;28;20703;-69
2022/04/04 09:43:56;;;;;;;4.90;4.50;;;15.40;77.10;;;;;;5030104;28;20470;-69
2022/04/04 09:46:23;;;;;;;4.50;4.10;;;15.20;71.40;;;;;;5026254;28;20437;-70
2022/04/04 09:49:09;;;;;;;5.13;4.63;;;14.90;68.50;;;;;;5029996;28;20427;-68
2022/04/04 09:51:56;;;;;;;6.63;4.73;;;14.50;70.10;;;;;;5037636;28;20486;-68
2022/04/04 09:54:28;;;;;;;5.30;4.50;;;14.00;70.40;;;;;;5026460;28;20448;-70
2022/04/04 09:57:14;;;;;;;5.57;4.57;;;13.70;73.60;;;;;;5026217;28;20414;-68
2022/04/04 09:59:41;;;;;;;5.83;4.40;;;13.50;71.40;;;;;;5028868;28;20926;-71
2022/04/04 10:02:12;;;;;;;6.53;5.20;;;13.10;70.50;;;;;;5049788;28;20944;-71
2022/04/04 10:04:42;;;;;;;5.67;4.93;;;12.80;73.20;;;;;;5032439;28;21041;-71
2022/04/04 10:07:17;;;;;;;5.20;3.77;;;12.60;74.50;;;;;;5031788;28;20461;-69
2022/04/04 10:09:47;;;;;;;5.53;4.63;;;12.50;77.00;;;;;;5022776;28;20810;-68
2022/04/04 10:12:14;;;;;;;4.72;4.22;;;12.50;74.70;;;;;;5043003;28;20230;-71
2022/04/04 10:14:40;;;;;;;5.82;5.07;;;12.50;75.30;;;;;;5024946;28;20572;-69
2022/04/04 10:17:07;;;;;;;4.90;4.40;;;12.50;72.50;;;;;;5026273;28;20178;-68
2022/04/04 10:19:34;;;;;;;6.25;4.60;;;12.40;74.90;;;;;;5026548;28;20280;-71
2022/04/04 10:22:01;;;;;;;4.70;4.30;;;12.30;74.40;;;;;;5029251;28;20185;-68
2022/04/04 10:24:27;;;;;;;5.40;3.80;;;12.20;73.20;;;;;;5013906;28;20226;-71
2022/04/04 10:26:54;;;;;;;12.77;4.72;;;12.20;73.30;;;;;;5023817;28;20442;-70
2022/04/04 10:29:24;;;;;;;5.25;4.78;;;12.10;74.60;;;;;;5029954;28;20690;-70
2022/04/04 10:31:53;;;;;;;5.25;4.28;;;12.00;72.30;;;;;;5024878;28;20187;-71
2022/04/04 10:34:26;;;;;;;5.53;4.70;;;11.80;73.50;;;;;;5044759;28;20736;-68
2022/04/04 10:37:09;;;;;;;5.05;4.65;;;11.70;74.50;;;;;;5021006;28;20529;-68
2022/04/04 10:39:51;;;;;;;5.93;4.30;;;11.60;76.50;;;;;;5028379;28;20254;-70
2022/04/04 10:42:37;;;;;;;7.82;5.03;;;11.80;76.30;;;;;;5025444;28;20191;-68
2022/04/04 10:45:12;;;;;;;6.07;4.40;;;11.90;75.60;;;;;;5023138;28;20317;-68
2022/04/04 10:47:45;;;;;;;6.28;4.85;;;11.90;74.60;;;;;;5025328;28;20710;-71
2022/04/04 10:50:20;;;;;;;4.85;3.83;;;12.00;72.80;;;;;;5035700;28;20209;-71
2022/04/04 10:53:02;;;;;;;5.25;4.57;;;12.00;74.00;;;;;;5028026;28;20686;-68
2022/04/04 10:55:47;;;;;;;6.15;4.90;;;12.00;75.20;;;;;;5029204;28;20232;-71
2022/04/04 10:58:25;;;;;;;6.07;4.90;;;11.90;73.80;;;;;;5027246;28;20178;-71
2022/04/04 11:01:21;;;;;;;5.55;4.68;;;11.90;71.50;;;;;;5043444;28;20198;-67
2022/04/04 11:03:53;;;;;;;4.93;4.53;;;11.60;72.90;;;;;;5025725;28;20221;-72
2022/04/04 11:09:36;;;;;;;4.80;4.40;;;11.50;73.50;;;;;;5025295;28;20287;-68
2022/04/04 11:12:08;;;;;;;5.88;5.22;;;11.50;72.30;;;;;;5025239;28;20597;-71
2022/04/04 11:15:03;;;;;;;5.10;4.35;;;11.40;72.70;;;;;;5023776;28;20219;-67
2022/04/04 11:18:00;;;;;;;4.93;4.43;;;11.30;74.10;;;;;;5023886;28;20194;-67
2022/04/04 11:20:33;;;;;;;4.95;4.30;;;11.20;74.60;;;;;;5025922;28;20576;-67
2022/04/04 11:23:04;;;;;;;5.55;4.57;;;11.30;75.20;;;;;;5024766;28;20635;-71
2022/04/04 11:25:38;;;;;;;5.03;4.53;;;11.40;75.30;;;;;;5041104;28;20221;-67
2022/04/04 11:28:10;;;;;;;7.82;4.90;;;11.50;75.90;;;;;;5026098;28;20186;-70
2022/04/04 11:30:47;;;;;;;7.22;6.45;;;11.60;78.30;;;;;;5022368;28;20337;-71
2022/04/04 11:33:23;;;;;;;5.78;5.25;;;11.80;76.30;;;;;;5035111;28;20193;-67
2022/04/04 11:35:54;;;;;;;6.18;4.95;;;11.90;76.20;;;;;;5043162;28;20759;-67
2022/04/04 11:38:40;;;;;;;6.20;5.03;;;12.00;74.80;;;;;;5027707;28;20237;-67
2022/04/04 11:41:13;;;;;;;5.75;5.10;;;11.90;73.80;;;;;;5026800;28;20554;-67
2022/04/04 11:43:53;;;;;;;4.63;4.22;;;11.90;73.30;;;;;;5038185;28;20710;-67
2022/04/04 11:46:32;;;;;;;5.68;4.63;;;11.80;74.10;;;;;;5025678;28;20267;-68
2022/04/04 11:48:59;;;;;;;5.68;4.78;;;11.80;74.30;;;;;;5023575;28;20209;-71
2022/04/04 11:51:37;;;;;;;5.25;4.55;;;11.70;73.60;;;;;;5024713;28;20230;-71
2022/04/04 11:54:09;;;;;;;5.13;4.43;;;11.70;73.70;;;;;;5015814;28;20178;-71
2022/04/04 11:56:35;;;;;;;6.97;5.03;;;11.70;76.10;;;;;;5022527;28;20535;-72
2022/04/04 11:59:06;;;;;;;6.20;5.50;;;11.60;75.70;;;;;;5018129;28;20187;-70
2022/04/04 12:01:35;;;;;;;6.30;4.43;;;11.70;75.90;;;;;;5024965;28;20187;-72
2022/04/04 12:04:03;;;;;;;7.10;4.78;;;11.80;75.80;;;;;;5017383;28;20205;-69
2022/04/04 12:06:31;;;;;;;12.90;9.55;;;11.90;73.80;;;;;;5042858;28;20212;-72
2022/04/04 12:09:07;;;;;;;9.18;6.47;;;11.80;75.20;;;;;;5028793;28;20182;-72
2022/04/04 12:11:47;;;;;;;5.65;5.07;;;11.80;76.00;;;;;;5028941;28;20193;-69
2022/04/04 12:14:31;;;;;;;5.60;5.10;;;11.80;74.60;;;;;;5020759;28;20256;-69
2022/04/04 12:16:57;;;;;;;7.18;5.75;;;11.70;74.70;;;;;;5014786;28;20191;-72
2022/04/04 12:19:27;;;;;;;5.70;4.77;;;11.70;75.70;;;;;;5023588;28;20225;-72
2022/04/04 12:21:57;;;;;;;6.72;5.63;;;11.70;75.70;;;;;;5022997;28;21044;-69
2022/04/04 12:27:10;;;;;;;7.50;5.47;;;11.60;76.10;;;;;;5020890;28;20198;-72
2022/04/04 12:29:45;;;;;;;7.22;5.82;;;11.50;76.40;;;;;;5032808;28;20218;-69
2022/04/04 12:32:19;;;;;;;7.03;4.82;;;11.50;76.60;;;;;;5018055;28;20268;-69
2022/04/04 12:34:59;;;;;;;7.82;5.80;;;11.60;76.70;;;;;;5024477;28;20615;-69
2022/04/04 12:37:35;;;;;;;10.05;6.40;;;11.70;75.90;;;;;;5022780;28;20232;-69
2022/04/04 12:40:23;;;;;;;9.73;7.15;;;11.80;75.10;;;;;;5029648;28;20280;-69
2022/04/04 12:42:53;;;;;;;6.30;5.68;;;11.90;77.00;;;;;;5041232;28;20182;-71
2022/04/04 12:45:20;;;;;;;6.15;5.55;;;12.00;76.60;;;;;;5029670;28;20229;-72
2022/04/04 12:48:10;;;;;;;5.10;4.40;;;12.10;77.60;;;;;;5035884;28;20186;-71
2022/04/04 12:50:52;;;;;;;6.82;5.35;;;12.20;76.60;;;;;;5045207;28;20698;-69
2022/04/04 12:53:28;;;;;;;5.63;4.50;;;12.30;75.60;;;;;;5015152;28;20695;-71
2022/04/04 12:56:09;;;;;;;6.32;5.43;;;12.40;75.80;;;;;;5045418;28;20209;-72
2022/04/04 12:58:35;;;;;;;5.50;4.93;;;12.30;76.00;;;;;;5032655;28;20201;-71
2022/04/04 13:01:18;;;;;;;6.57;5.97;;;12.40;77.20;;;;;;5042652;28;20455;-68
2022/04/04 13:03:50;;;;;;;6.60;5.22;;;12.40;75.00;;;;;;5025769;28;20215;-70
2022/04/04 13:06:21;;;;;;;7.95;6.25;;;12.30;74.20;;;;;;5026868;28;20294;-68
2022/04/04 13:09:03;;;;;;;6.07;5.47;;;12.20;76.20;;;;;;5025975;28;20179;-68
2022/04/04 13:11:44;;;;;;;7.28;5.15;;;12.10;75.30;;;;;;5025101;28;20456;-72
2022/04/04 13:14:10;;;;;;;8.90;7.15;;;12.00;74.70;;;;;;5027910;28;20190;-68
2022/04/04 13:16:45;;;;;;;7.63;5.80;;;11.80;75.50;;;;;;5025457;28;20182;-68
2022/04/04 13:19:23;;;;;;;6.40;5.18;;;11.80;75.70;;;;;;5034544;28;20521;-69
2022/04/04 13:21:51;;;;;;;10.60;6.00;;;11.70;77.70;;;;;;5023192;28;20190;-69